首页
METAR-TAF:

METAR-TAF

机场 :

塔那那利佛/伊瓦图国际机场

塔那那利佛, 马达加斯加

纬度: 18-48S, 经度: 047-29E, 海拔: 1279米

当前天气观测

该预报发布于28分钟前的14:30 UTC
风速14节,风向东转东南
温度 20°C
湿度 46%
气压 1024 hPa
能见度10公里或以上
少量云层高于2000英尺

METAR: FMMI 231430Z 11014KT 9999 FEW020 20/08 Q1024 NOSIG

时间: 17:58 (14:58 UTC)

预报

该预报发布于3小时和58分钟前的11:00 UTC
预报有效从23日的 12点(UTC)到 24日的 18点(UTC)
风速10节,风向东转东南
能见度10公里或以上
少量云层高于2000英尺
几率 40% :
短暂存在
从 24日的 07点(UTC)到 24日的 14点(UTC)
风速15节,风向东南,有时为25节阵风

TAF: FMMI 231100Z 2312/2418 12010KT 9999 FEW020 PROB40 TEMPO 2407/2414 14015G25KT

超过4000个机场的气象观测和天气预报(METAR&TAF报告)。

可查询的气象台以黄色和红色小点在地图上表示。

将鼠标移到小点上方,可查看气象台名称。

然后点击查看天气观测和预报。

如需切换地图:点击带黑十字的绿色按钮放大地图;点击带横线的绿色按钮缩小地图;或者点击绿色箭头查看邻近地区的地图。


METAR-TAF: